sensor_id;sensor_type;location;lat;lon;timestamp;temperature;humidity
46416;DHT22;32620;51.704;7.822;2023-11-19T00:00:10;10.10;99.90
46416;DHT22;32620;51.704;7.822;2023-11-19T00:02:40;10.10;99.90
46416;DHT22;32620;51.704;7.822;2023-11-19T00:05:06;10.10;99.90
46416;DHT22;32620;51.704;7.822;2023-11-19T00:07:37;10.10;99.90
46416;DHT22;32620;51.704;7.822;2023-11-19T00:10:08;10.10;99.90
46416;DHT22;32620;51.704;7.822;2023-11-19T00:12:35;10.30;99.90
46416;DHT22;32620;51.704;7.822;2023-11-19T00:15:01;10.30;99.90
46416;DHT22;32620;51.704;7.822;2023-11-19T00:17:27;10.30;99.90
46416;DHT22;32620;51.704;7.822;2023-11-19T00:19:52;10.30;99.90
46416;DHT22;32620;51.704;7.822;2023-11-19T00:22:18;10.30;99.90
46416;DHT22;32620;51.704;7.822;2023-11-19T00:24:43;10.40;99.90
46416;DHT22;32620;51.704;7.822;2023-11-19T00:27:10;10.40;99.90
46416;DHT22;32620;51.704;7.822;2023-11-19T00:29:35;10.50;99.90
46416;DHT22;32620;51.704;7.822;2023-11-19T00:32:01;10.50;99.90
46416;DHT22;32620;51.704;7.822;2023-11-19T00:34:27;10.50;99.90
46416;DHT22;32620;51.704;7.822;2023-11-19T00:36:53;10.50;99.90
46416;DHT22;32620;51.704;7.822;2023-11-19T00:39:20;10.50;99.90
46416;DHT22;32620;51.704;7.822;2023-11-19T00:41:46;10.60;99.90
46416;DHT22;32620;51.704;7.822;2023-11-19T00:44:12;10.60;99.90
46416;DHT22;32620;51.704;7.822;2023-11-19T00:46:38;10.70;99.90
46416;DHT22;32620;51.704;7.822;2023-11-19T00:49:04;10.60;99.90
46416;DHT22;32620;51.704;7.822;2023-11-19T00:51:29;10.70;99.90
46416;DHT22;32620;51.704;7.822;2023-11-19T00:53:57;10.60;99.90
46416;DHT22;32620;51.704;7.822;2023-11-19T00:56:22;10.70;99.90
46416;DHT22;32620;51.704;7.822;2023-11-19T00:58:48;10.70;99.90
46416;DHT22;32620;51.704;7.822;2023-11-19T01:01:14;10.70;99.90
46416;DHT22;32620;51.704;7.822;2023-11-19T01:03:39;10.70;99.90
46416;DHT22;32620;51.704;7.822;2023-11-19T01:06:05;10.70;99.90
46416;DHT22;32620;51.704;7.822;2023-11-19T01:08:31;10.70;99.90
46416;DHT22;32620;51.704;7.822;2023-11-19T01:10:57;10.70;99.90
46416;DHT22;32620;51.704;7.822;2023-11-19T01:13:22;10.70;99.90
46416;DHT22;32620;51.704;7.822;2023-11-19T01:15:48;10.70;99.90
46416;DHT22;32620;51.704;7.822;2023-11-19T01:18:14;10.80;99.90
46416;DHT22;32620;51.704;7.822;2023-11-19T01:20:40;10.80;99.90
46416;DHT22;32620;51.704;7.822;2023-11-19T01:23:05;10.90;99.90
46416;DHT22;32620;51.704;7.822;2023-11-19T01:25:31;10.80;99.90
46416;DHT22;32620;51.704;7.822;2023-11-19T01:27:56;10.90;99.90
46416;DHT22;32620;51.704;7.822;2023-11-19T01:30:24;10.90;99.90
46416;DHT22;32620;51.704;7.822;2023-11-19T01:32:50;10.90;99.90
46416;DHT22;32620;51.704;7.822;2023-11-19T01:35:15;11.00;99.90
46416;DHT22;32620;51.704;7.822;2023-11-19T01:37:41;10.90;99.90
46416;DHT22;32620;51.704;7.822;2023-11-19T01:40:07;11.00;99.90
46416;DHT22;32620;51.704;7.822;2023-11-19T01:42:37;11.00;99.90
46416;DHT22;32620;51.704;7.822;2023-11-19T01:45:04;11.10;99.90
46416;DHT22;32620;51.704;7.822;2023-11-19T01:47:33;11.10;99.90
46416;DHT22;32620;51.704;7.822;2023-11-19T01:50:01;11.20;99.90
46416;DHT22;32620;51.704;7.822;2023-11-19T01:52:27;11.20;99.90
46416;DHT22;32620;51.704;7.822;2023-11-19T01:54:54;11.30;99.90
46416;DHT22;32620;51.704;7.822;2023-11-19T01:57:22;11.30;99.90
46416;DHT22;32620;51.704;7.822;2023-11-19T01:59:50;11.40;99.90
46416;DHT22;32620;51.704;7.822;2023-11-19T02:02:16;11.50;99.90
46416;DHT22;32620;51.704;7.822;2023-11-19T02:04:47;11.40;99.90
46416;DHT22;32620;51.704;7.822;2023-11-19T02:07:13;11.40;99.90
46416;DHT22;32620;51.704;7.822;2023-11-19T02:09:42;11.50;99.90
46416;DHT22;32620;51.704;7.822;2023-11-19T02:12:08;11.50;99.90
46416;DHT22;32620;51.704;7.822;2023-11-19T02:14:35;11.60;99.90
46416;DHT22;32620;51.704;7.822;2023-11-19T02:17:00;11.70;99.90
46416;DHT22;32620;51.704;7.822;2023-11-19T02:19:26;11.70;99.90
46416;DHT22;32620;51.704;7.822;2023-11-19T02:21:51;11.70;99.90
46416;DHT22;32620;51.704;7.822;2023-11-19T02:24:21;11.80;99.90
46416;DHT22;32620;51.704;7.822;2023-11-19T02:27:00;11.80;99.90
46416;DHT22;32620;51.704;7.822;2023-11-19T02:29:27;11.80;99.90
46416;DHT22;32620;51.704;7.822;2023-11-19T02:31:53;11.90;99.90
46416;DHT22;32620;51.704;7.822;2023-11-19T02:34:20;12.00;99.90
46416;DHT22;32620;51.704;7.822;2023-11-19T02:36:47;12.00;99.90
46416;DHT22;32620;51.704;7.822;2023-11-19T02:39:12;12.00;99.90
46416;DHT22;32620;51.704;7.822;2023-11-19T02:41:38;12.10;99.90
46416;DHT22;32620;51.704;7.822;2023-11-19T02:44:06;12.10;99.90
46416;DHT22;32620;51.704;7.822;2023-11-19T02:46:31;12.10;99.90
46416;DHT22;32620;51.704;7.822;2023-11-19T02:48:57;12.20;99.90
46416;DHT22;32620;51.704;7.822;2023-11-19T02:51:23;12.20;99.90
46416;DHT22;32620;51.704;7.822;2023-11-19T02:53:49;12.20;99.90
46416;DHT22;32620;51.704;7.822;2023-11-19T02:56:14;12.20;99.90
46416;DHT22;32620;51.704;7.822;2023-11-19T02:58:45;12.20;99.90
46416;DHT22;32620;51.704;7.822;2023-11-19T03:01:12;12.30;99.90
46416;DHT22;32620;51.704;7.822;2023-11-19T03:03:49;12.30;99.90
46416;DHT22;32620;51.704;7.822;2023-11-19T03:06:20;12.20;99.90
46416;DHT22;32620;51.704;7.822;2023-11-19T03:08:47;12.30;99.90
46416;DHT22;32620;51.704;7.822;2023-11-19T03:11:13;12.30;99.90
46416;DHT22;32620;51.704;7.822;2023-11-19T03:13:39;12.30;99.90
46416;DHT22;32620;51.704;7.822;2023-11-19T03:16:05;12.30;99.90
46416;DHT22;32620;51.704;7.822;2023-11-19T03:18:31;12.40;99.90
46416;DHT22;32620;51.704;7.822;2023-11-19T03:20:56;12.30;99.90
46416;DHT22;32620;51.704;7.822;2023-11-19T03:23:24;12.30;99.90
46416;DHT22;32620;51.704;7.822;2023-11-19T03:25:50;12.30;99.90
46416;DHT22;32620;51.704;7.822;2023-11-19T03:28:16;12.30;99.90
46416;DHT22;32620;51.704;7.822;2023-11-19T03:30:42;12.30;99.90
46416;DHT22;32620;51.704;7.822;2023-11-19T03:33:07;12.30;99.90
46416;DHT22;32620;51.704;7.822;2023-11-19T03:35:33;12.30;99.90
46416;DHT22;32620;51.704;7.822;2023-11-19T03:37:59;12.30;99.90
46416;DHT22;32620;51.704;7.822;2023-11-19T03:40:24;12.30;99.90
46416;DHT22;32620;51.704;7.822;2023-11-19T03:42:50;12.30;99.90
46416;DHT22;32620;51.704;7.822;2023-11-19T03:45:16;12.30;99.90
46416;DHT22;32620;51.704;7.822;2023-11-19T03:47:42;12.20;99.90
46416;DHT22;32620;51.704;7.822;2023-11-19T03:50:08;12.30;99.90
46416;DHT22;32620;51.704;7.822;2023-11-19T03:52:34;12.30;99.90
46416;DHT22;32620;51.704;7.822;2023-11-19T03:55:00;12.30;99.90
46416;DHT22;32620;51.704;7.822;2023-11-19T03:57:27;12.40;99.90
46416;DHT22;32620;51.704;7.822;2023-11-19T03:59:53;12.30;99.90
46416;DHT22;32620;51.704;7.822;2023-11-19T04:02:18;12.30;99.90
46416;DHT22;32620;51.704;7.822;2023-11-19T04:04:44;12.20;99.90
46416;DHT22;32620;51.704;7.822;2023-11-19T04:07:10;12.30;99.90
46416;DHT22;32620;51.704;7.822;2023-11-19T04:09:35;12.30;99.90
46416;DHT22;32620;51.704;7.822;2023-11-19T04:12:03;12.30;99.90
46416;DHT22;32620;51.704;7.822;2023-11-19T04:14:29;12.40;99.90
46416;DHT22;32620;51.704;7.822;2023-11-19T04:16:55;12.40;99.90
46416;DHT22;32620;51.704;7.822;2023-11-19T04:19:20;12.40;99.90
46416;DHT22;32620;51.704;7.822;2023-11-19T04:21:47;12.40;99.90
46416;DHT22;32620;51.704;7.822;2023-11-19T04:24:13;12.50;99.90
46416;DHT22;32620;51.704;7.822;2023-11-19T04:26:43;12.50;99.90
46416;DHT22;32620;51.704;7.822;2023-11-19T04:29:12;12.50;99.90
46416;DHT22;32620;51.704;7.822;2023-11-19T04:31:38;12.40;99.90
46416;DHT22;32620;51.704;7.822;2023-11-19T04:34:05;12.40;99.90
46416;DHT22;32620;51.704;7.822;2023-11-19T04:36:33;12.40;99.90
46416;DHT22;32620;51.704;7.822;2023-11-19T04:39:00;12.40;99.90
46416;DHT22;32620;51.704;7.822;2023-11-19T04:41:26;12.40;99.90
46416;DHT22;32620;51.704;7.822;2023-11-19T04:43:53;12.30;99.90
46416;DHT22;32620;51.704;7.822;2023-11-19T04:46:19;12.40;99.90
46416;DHT22;32620;51.704;7.822;2023-11-19T04:48:45;12.40;99.90
46416;DHT22;32620;51.704;7.822;2023-11-19T04:51:10;12.30;99.90
46416;DHT22;32620;51.704;7.822;2023-11-19T04:53:36;12.20;99.90
46416;DHT22;32620;51.704;7.822;2023-11-19T04:56:08;12.20;99.90
46416;DHT22;32620;51.704;7.822;2023-11-19T04:58:34;12.10;99.90
46416;DHT22;32620;51.704;7.822;2023-11-19T05:01:03;12.10;99.90
46416;DHT22;32620;51.704;7.822;2023-11-19T05:03:29;12.10;99.90
46416;DHT22;32620;51.704;7.822;2023-11-19T05:05:55;12.10;99.90
46416;DHT22;32620;51.704;7.822;2023-11-19T05:08:20;12.00;99.90
46416;DHT22;32620;51.704;7.822;2023-11-19T05:10:46;12.00;99.90
46416;DHT22;32620;51.704;7.822;2023-11-19T05:13:11;12.00;99.90
46416;DHT22;32620;51.704;7.822;2023-11-19T05:15:38;12.10;99.90
46416;DHT22;32620;51.704;7.822;2023-11-19T05:18:03;12.10;99.90
46416;DHT22;32620;51.704;7.822;2023-11-19T05:20:30;12.10;99.90
46416;DHT22;32620;51.704;7.822;2023-11-19T05:22:55;12.00;99.90
46416;DHT22;32620;51.704;7.822;2023-11-19T05:25:22;12.10;99.90
46416;DHT22;32620;51.704;7.822;2023-11-19T05:27:47;12.10;99.90
46416;DHT22;32620;51.704;7.822;2023-11-19T05:30:13;12.10;99.90
46416;DHT22;32620;51.704;7.822;2023-11-19T05:32:39;12.10;99.90
46416;DHT22;32620;51.704;7.822;2023-11-19T05:35:05;12.20;99.90
46416;DHT22;32620;51.704;7.822;2023-11-19T05:37:30;12.10;99.90
46416;DHT22;32620;51.704;7.822;2023-11-19T05:39:56;12.10;99.90
46416;DHT22;32620;51.704;7.822;2023-11-19T05:42:21;12.10;99.90
46416;DHT22;32620;51.704;7.822;2023-11-19T05:44:47;12.20;99.90
46416;DHT22;32620;51.704;7.822;2023-11-19T05:47:13;12.10;99.90
46416;DHT22;32620;51.704;7.822;2023-11-19T05:49:38;12.10;99.90
46416;DHT22;32620;51.704;7.822;2023-11-19T05:52:04;12.00;99.90
46416;DHT22;32620;51.704;7.822;2023-11-19T05:54:33;12.00;99.90
46416;DHT22;32620;51.704;7.822;2023-11-19T05:57:04;12.00;99.90
46416;DHT22;32620;51.704;7.822;2023-11-19T05:59:30;12.10;99.90
46416;DHT22;32620;51.704;7.822;2023-11-19T06:01:57;12.00;99.90
46416;DHT22;32620;51.704;7.822;2023-11-19T06:04:23;12.00;99.90
46416;DHT22;32620;51.704;7.822;2023-11-19T06:06:49;12.00;99.90
46416;DHT22;32620;51.704;7.822;2023-11-19T06:09:14;11.90;99.90
46416;DHT22;32620;51.704;7.822;2023-11-19T06:11:40;11.90;99.90
46416;DHT22;32620;51.704;7.822;2023-11-19T06:14:06;12.00;99.90
46416;DHT22;32620;51.704;7.822;2023-11-19T06:16:32;12.00;99.90
46416;DHT22;32620;51.704;7.822;2023-11-19T06:18:58;11.90;99.90
46416;DHT22;32620;51.704;7.822;2023-11-19T06:21:24;11.90;99.90
46416;DHT22;32620;51.704;7.822;2023-11-19T06:23:50;11.90;99.90
46416;DHT22;32620;51.704;7.822;2023-11-19T06:26:17;11.90;99.90
46416;DHT22;32620;51.704;7.822;2023-11-19T06:28:43;12.00;99.90
46416;DHT22;32620;51.704;7.822;2023-11-19T06:31:10;12.00;99.90
46416;DHT22;32620;51.704;7.822;2023-11-19T06:33:35;12.00;99.90
46416;DHT22;32620;51.704;7.822;2023-11-19T06:36:01;11.90;99.90
46416;DHT22;32620;51.704;7.822;2023-11-19T06:38:27;11.90;99.90
46416;DHT22;32620;51.704;7.822;2023-11-19T06:40:52;11.90;99.90
46416;DHT22;32620;51.704;7.822;2023-11-19T06:43:18;11.80;99.90
46416;DHT22;32620;51.704;7.822;2023-11-19T06:45:44;11.70;99.90
46416;DHT22;32620;51.704;7.822;2023-11-19T06:48:09;11.80;99.90
46416;DHT22;32620;51.704;7.822;2023-11-19T06:50:35;11.80;99.90
46416;DHT22;32620;51.704;7.822;2023-11-19T06:53:01;11.90;99.90
46416;DHT22;32620;51.704;7.822;2023-11-19T06:55:27;11.80;99.90
46416;DHT22;32620;51.704;7.822;2023-11-19T06:57:53;11.80;99.90
46416;DHT22;32620;51.704;7.822;2023-11-19T07:00:18;11.80;99.90
46416;DHT22;32620;51.704;7.822;2023-11-19T07:02:44;11.80;99.90
46416;DHT22;32620;51.704;7.822;2023-11-19T07:05:10;11.90;99.90
46416;DHT22;32620;51.704;7.822;2023-11-19T07:07:37;11.90;99.90
46416;DHT22;32620;51.704;7.822;2023-11-19T07:10:03;11.90;99.90
46416;DHT22;32620;51.704;7.822;2023-11-19T07:12:30;11.90;99.90
46416;DHT22;32620;51.704;7.822;2023-11-19T07:14:56;11.90;99.90
46416;DHT22;32620;51.704;7.822;2023-11-19T07:17:22;11.90;99.90
46416;DHT22;32620;51.704;7.822;2023-11-19T07:19:50;12.00;99.90
46416;DHT22;32620;51.704;7.822;2023-11-19T07:22:16;12.00;99.90
46416;DHT22;32620;51.704;7.822;2023-11-19T07:24:42;12.00;99.90
46416;DHT22;32620;51.704;7.822;2023-11-19T07:27:08;12.00;99.90
46416;DHT22;32620;51.704;7.822;2023-11-19T07:29:35;12.10;99.90
46416;DHT22;32620;51.704;7.822;2023-11-19T07:32:01;12.10;99.90
46416;DHT22;32620;51.704;7.822;2023-11-19T07:34:28;12.10;99.90
46416;DHT22;32620;51.704;7.822;2023-11-19T07:36:54;12.10;99.90
46416;DHT22;32620;51.704;7.822;2023-11-19T07:39:22;12.10;99.90
46416;DHT22;32620;51.704;7.822;2023-11-19T07:41:48;12.00;99.90
46416;DHT22;32620;51.704;7.822;2023-11-19T07:44:15;12.00;99.90
46416;DHT22;32620;51.704;7.822;2023-11-19T07:46:40;12.00;99.90
46416;DHT22;32620;51.704;7.822;2023-11-19T07:49:07;12.00;99.90
46416;DHT22;32620;51.704;7.822;2023-11-19T07:51:35;12.00;99.90
46416;DHT22;32620;51.704;7.822;2023-11-19T07:54:01;12.00;99.90
46416;DHT22;32620;51.704;7.822;2023-11-19T07:56:27;12.10;99.90
46416;DHT22;32620;51.704;7.822;2023-11-19T07:58:52;12.10;99.90
46416;DHT22;32620;51.704;7.822;2023-11-19T08:01:18;12.10;99.90
46416;DHT22;32620;51.704;7.822;2023-11-19T08:03:44;12.10;99.90
46416;DHT22;32620;51.704;7.822;2023-11-19T08:06:10;12.20;99.90
46416;DHT22;32620;51.704;7.822;2023-11-19T08:08:36;12.30;99.90
46416;DHT22;32620;51.704;7.822;2023-11-19T08:11:03;12.40;99.90
46416;DHT22;32620;51.704;7.822;2023-11-19T08:13:30;12.60;99.90
46416;DHT22;32620;51.704;7.822;2023-11-19T08:15:57;12.60;99.90
46416;DHT22;32620;51.704;7.822;2023-11-19T08:18:24;12.60;99.90
46416;DHT22;32620;51.704;7.822;2023-11-19T08:20:50;12.60;99.90
46416;DHT22;32620;51.704;7.822;2023-11-19T08:23:19;12.60;99.90
46416;DHT22;32620;51.704;7.822;2023-11-19T08:25:45;12.70;99.90
46416;DHT22;32620;51.704;7.822;2023-11-19T08:28:10;12.80;99.90
46416;DHT22;32620;51.704;7.822;2023-11-19T08:30:36;12.80;99.90
46416;DHT22;32620;51.704;7.822;2023-11-19T08:33:01;12.70;99.90
46416;DHT22;32620;51.704;7.822;2023-11-19T08:35:29;12.60;99.90
46416;DHT22;32620;51.704;7.822;2023-11-19T08:37:55;12.50;99.90
46416;DHT22;32620;51.704;7.822;2023-11-19T08:40:20;12.40;99.90
46416;DHT22;32620;51.704;7.822;2023-11-19T08:42:46;12.40;99.90
46416;DHT22;32620;51.704;7.822;2023-11-19T08:45:12;12.40;99.90
46416;DHT22;32620;51.704;7.822;2023-11-19T08:47:38;12.40;99.90
46416;DHT22;32620;51.704;7.822;2023-11-19T08:50:06;12.30;99.90
46416;DHT22;32620;51.704;7.822;2023-11-19T08:52:32;12.30;99.90
46416;DHT22;32620;51.704;7.822;2023-11-19T08:54:57;12.30;99.90
46416;DHT22;32620;51.704;7.822;2023-11-19T08:57:23;12.30;99.90
46416;DHT22;32620;51.704;7.822;2023-11-19T08:59:49;12.30;99.90
46416;DHT22;32620;51.704;7.822;2023-11-19T09:02:14;12.30;99.90
46416;DHT22;32620;51.704;7.822;2023-11-19T09:04:41;12.20;99.90
46416;DHT22;32620;51.704;7.822;2023-11-19T09:07:07;12.20;99.90
46416;DHT22;32620;51.704;7.822;2023-11-19T09:09:35;12.20;99.90
46416;DHT22;32620;51.704;7.822;2023-11-19T09:12:02;12.20;99.90
46416;DHT22;32620;51.704;7.822;2023-11-19T09:14:29;12.20;99.90
46416;DHT22;32620;51.704;7.822;2023-11-19T09:16:56;12.20;99.90
46416;DHT22;32620;51.704;7.822;2023-11-19T09:19:21;12.30;99.90
46416;DHT22;32620;51.704;7.822;2023-11-19T09:21:47;12.30;99.90
46416;DHT22;32620;51.704;7.822;2023-11-19T09:24:13;12.30;99.90
46416;DHT22;32620;51.704;7.822;2023-11-19T09:26:39;12.40;99.90
46416;DHT22;32620;51.704;7.822;2023-11-19T09:29:07;12.50;99.90
46416;DHT22;32620;51.704;7.822;2023-11-19T09:31:33;12.50;99.90
46416;DHT22;32620;51.704;7.822;2023-11-19T09:33:58;12.60;99.90
46416;DHT22;32620;51.704;7.822;2023-11-19T09:36:24;12.70;99.90
46416;DHT22;32620;51.704;7.822;2023-11-19T09:38:50;12.80;99.90
46416;DHT22;32620;51.704;7.822;2023-11-19T09:41:15;12.90;98.20
46416;DHT22;32620;51.704;7.822;2023-11-19T09:43:42;13.00;95.30
46416;DHT22;32620;51.704;7.822;2023-11-19T09:46:10;13.00;93.70
46416;DHT22;32620;51.704;7.822;2023-11-19T09:48:38;12.90;93.60
46416;DHT22;32620;51.704;7.822;2023-11-19T09:51:05;12.90;93.70
46416;DHT22;32620;51.704;7.822;2023-11-19T09:53:31;12.90;94.10
46416;DHT22;32620;51.704;7.822;2023-11-19T09:55:59;12.80;98.50
46416;DHT22;32620;51.704;7.822;2023-11-19T09:58:26;12.70;97.50
46416;DHT22;32620;51.704;7.822;2023-11-19T10:00:52;13.00;99.10
46416;DHT22;32620;51.704;7.822;2023-11-19T10:03:17;13.20;86.10
46416;DHT22;32620;51.704;7.822;2023-11-19T10:05:43;13.10;83.40
46416;DHT22;32620;51.704;7.822;2023-11-19T10:08:09;13.40;90.40
46416;DHT22;32620;51.704;7.822;2023-11-19T10:10:37;13.50;70.60
46416;DHT22;32620;51.704;7.822;2023-11-19T10:13:03;13.40;57.90
46416;DHT22;32620;51.704;7.822;2023-11-19T10:15:33;13.20;77.70
46416;DHT22;32620;51.704;7.822;2023-11-19T10:18:00;13.10;81.40
46416;DHT22;32620;51.704;7.822;2023-11-19T10:20:26;13.10;81.60
46416;DHT22;32620;51.704;7.822;2023-11-19T10:22:53;13.00;78.70
46416;DHT22;32620;51.704;7.822;2023-11-19T10:25:25;13.00;78.70
46416;DHT22;32620;51.704;7.822;2023-11-19T10:27:52;12.90;89.10
46416;DHT22;32620;51.704;7.822;2023-11-19T10:30:29;12.80;78.90
46416;DHT22;32620;51.704;7.822;2023-11-19T10:33:05;12.90;86.70
46416;DHT22;32620;51.704;7.822;2023-11-19T10:35:32;13.00;83.70
46416;DHT22;32620;51.704;7.822;2023-11-19T10:38:14;12.90;83.20
46416;DHT22;32620;51.704;7.822;2023-11-19T10:40:41;12.80;83.40
46416;DHT22;32620;51.704;7.822;2023-11-19T10:43:08;12.80;89.90
46416;DHT22;32620;51.704;7.822;2023-11-19T10:45:36;12.80;87.90
46416;DHT22;32620;51.704;7.822;2023-11-19T10:48:03;12.80;84.90
46416;DHT22;32620;51.704;7.822;2023-11-19T10:50:33;12.80;85.40
46416;DHT22;32620;51.704;7.822;2023-11-19T10:52:59;12.80;82.10
46416;DHT22;32620;51.704;7.822;2023-11-19T10:55:27;12.80;91.00
46416;DHT22;32620;51.704;7.822;2023-11-19T10:57:59;12.70;92.00
46416;DHT22;32620;51.704;7.822;2023-11-19T11:00:25;12.60;99.90
46416;DHT22;32620;51.704;7.822;2023-11-19T11:02:55;12.60;99.90
46416;DHT22;32620;51.704;7.822;2023-11-19T11:05:22;12.60;99.90
46416;DHT22;32620;51.704;7.822;2023-11-19T11:07:49;12.50;99.90
46416;DHT22;32620;51.704;7.822;2023-11-19T11:10:16;12.50;99.90
46416;DHT22;32620;51.704;7.822;2023-11-19T11:12:43;12.50;99.90
46416;DHT22;32620;51.704;7.822;2023-11-19T11:15:11;12.40;99.90
46416;DHT22;32620;51.704;7.822;2023-11-19T11:17:39;12.40;99.90
46416;DHT22;32620;51.704;7.822;2023-11-19T11:20:08;12.40;99.90
46416;DHT22;32620;51.704;7.822;2023-11-19T11:22:50;12.30;99.90
46416;DHT22;32620;51.704;7.822;2023-11-19T11:25:28;12.30;99.90
46416;DHT22;32620;51.704;7.822;2023-11-19T11:28:09;12.40;99.90
46416;DHT22;32620;51.704;7.822;2023-11-19T11:31:31;12.50;99.90
46416;DHT22;32620;51.704;7.822;2023-11-19T11:37:17;12.40;99.90
46416;DHT22;32620;51.704;7.822;2023-11-19T11:39:46;12.50;99.90
46416;DHT22;32620;51.704;7.822;2023-11-19T11:45:09;12.60;99.90
46416;DHT22;32620;51.704;7.822;2023-11-19T11:50:20;12.70;99.90
46416;DHT22;32620;51.704;7.822;2023-11-19T11:55:53;12.90;99.70
46416;DHT22;32620;51.704;7.822;2023-11-19T11:58:21;12.70;95.60
46416;DHT22;32620;51.704;7.822;2023-11-19T12:00:48;12.60;98.10
46416;DHT22;32620;51.704;7.822;2023-11-19T12:03:14;12.60;95.30
46416;DHT22;32620;51.704;7.822;2023-11-19T12:05:42;12.60;99.70
46416;DHT22;32620;51.704;7.822;2023-11-19T12:08:11;12.60;99.90
46416;DHT22;32620;51.704;7.822;2023-11-19T12:10:44;12.60;99.90
46416;DHT22;32620;51.704;7.822;2023-11-19T12:13:10;12.50;99.90
46416;DHT22;32620;51.704;7.822;2023-11-19T12:18:34;12.50;99.90
46416;DHT22;32620;51.704;7.822;2023-11-19T12:21:01;12.60;99.90
46416;DHT22;32620;51.704;7.822;2023-11-19T12:23:29;12.70;99.90
46416;DHT22;32620;51.704;7.822;2023-11-19T12:25:55;12.80;99.90
46416;DHT22;32620;51.704;7.822;2023-11-19T12:28:21;12.80;99.90
46416;DHT22;32620;51.704;7.822;2023-11-19T12:30:47;12.90;99.90
46416;DHT22;32620;51.704;7.822;2023-11-19T12:33:13;12.90;99.90
46416;DHT22;32620;51.704;7.822;2023-11-19T12:35:42;12.90;99.90
46416;DHT22;32620;51.704;7.822;2023-11-19T12:38:08;12.80;99.90
46416;DHT22;32620;51.704;7.822;2023-11-19T12:40:43;12.80;99.90
46416;DHT22;32620;51.704;7.822;2023-11-19T12:43:09;12.80;99.90
46416;DHT22;32620;51.704;7.822;2023-11-19T12:45:35;12.80;99.60
46416;DHT22;32620;51.704;7.822;2023-11-19T12:48:09;12.80;98.10
46416;DHT22;32620;51.704;7.822;2023-11-19T12:50:57;12.90;90.20
46416;DHT22;32620;51.704;7.822;2023-11-19T12:53:24;13.00;89.80
46416;DHT22;32620;51.704;7.822;2023-11-19T12:55:52;13.00;84.70
46416;DHT22;32620;51.704;7.822;2023-11-19T12:58:37;13.10;74.20
46416;DHT22;32620;51.704;7.822;2023-11-19T13:01:06;13.10;76.30
46416;DHT22;32620;51.704;7.822;2023-11-19T13:03:33;13.20;54.70
46416;DHT22;32620;51.704;7.822;2023-11-19T13:06:04;13.20;39.70
46416;DHT22;32620;51.704;7.822;2023-11-19T13:08:42;13.20;44.20
46416;DHT22;32620;51.704;7.822;2023-11-19T13:11:12;13.20;22.50
46416;DHT22;32620;51.704;7.822;2023-11-19T13:13:58;13.20;9.80
46416;DHT22;32620;51.704;7.822;2023-11-19T13:16:26;13.20;9.70
46416;DHT22;32620;51.704;7.822;2023-11-19T13:18:52;13.20;8.30
46416;DHT22;32620;51.704;7.822;2023-11-19T13:21:18;13.20;7.90
46416;DHT22;32620;51.704;7.822;2023-11-19T13:23:44;13.20;1.00
46416;DHT22;32620;51.704;7.822;2023-11-19T13:26:10;13.20;1.00
46416;DHT22;32620;51.704;7.822;2023-11-19T13:28:37;13.10;4.50
46416;DHT22;32620;51.704;7.822;2023-11-19T13:31:03;13.10;5.50
46416;DHT22;32620;51.704;7.822;2023-11-19T13:33:29;13.00;32.30
46416;DHT22;32620;51.704;7.822;2023-11-19T13:35:55;12.90;40.40
46416;DHT22;32620;51.704;7.822;2023-11-19T13:38:20;12.80;71.80
46416;DHT22;32620;51.704;7.822;2023-11-19T13:40:46;12.60;90.60
46416;DHT22;32620;51.704;7.822;2023-11-19T13:43:12;12.60;96.70
46416;DHT22;32620;51.704;7.822;2023-11-19T13:45:37;12.40;99.90
46416;DHT22;32620;51.704;7.822;2023-11-19T13:48:03;12.20;99.90
46416;DHT22;32620;51.704;7.822;2023-11-19T13:50:29;12.10;99.90
46416;DHT22;32620;51.704;7.822;2023-11-19T13:52:54;11.80;99.90
46416;DHT22;32620;51.704;7.822;2023-11-19T13:55:20;11.70;99.90
46416;DHT22;32620;51.704;7.822;2023-11-19T13:57:46;11.70;99.90
46416;DHT22;32620;51.704;7.822;2023-11-19T14:00:12;11.60;99.90
46416;DHT22;32620;51.704;7.822;2023-11-19T14:02:40;11.60;99.90
46416;DHT22;32620;51.704;7.822;2023-11-19T14:05:06;11.70;99.90
46416;DHT22;32620;51.704;7.822;2023-11-19T14:07:32;11.70;99.90
46416;DHT22;32620;51.704;7.822;2023-11-19T14:09:58;11.70;99.90
46416;DHT22;32620;51.704;7.822;2023-11-19T14:12:24;11.80;99.90
46416;DHT22;32620;51.704;7.822;2023-11-19T14:14:49;11.90;99.90
46416;DHT22;32620;51.704;7.822;2023-11-19T14:17:15;11.90;99.90
46416;DHT22;32620;51.704;7.822;2023-11-19T14:19:42;11.90;99.90
46416;DHT22;32620;51.704;7.822;2023-11-19T14:22:07;12.00;99.90
46416;DHT22;32620;51.704;7.822;2023-11-19T14:24:34;12.00;99.90
46416;DHT22;32620;51.704;7.822;2023-11-19T14:27:00;12.00;99.90
46416;DHT22;32620;51.704;7.822;2023-11-19T14:29:26;11.80;99.90
46416;DHT22;32620;51.704;7.822;2023-11-19T14:31:53;11.80;99.90
46416;DHT22;32620;51.704;7.822;2023-11-19T14:34:20;11.80;99.90
46416;DHT22;32620;51.704;7.822;2023-11-19T14:36:45;11.80;99.90
46416;DHT22;32620;51.704;7.822;2023-11-19T14:39:11;11.80;99.90
46416;DHT22;32620;51.704;7.822;2023-11-19T14:41:37;11.80;99.90
46416;DHT22;32620;51.704;7.822;2023-11-19T14:44:03;11.80;99.90
46416;DHT22;32620;51.704;7.822;2023-11-19T14:46:29;11.90;99.90
46416;DHT22;32620;51.704;7.822;2023-11-19T14:48:54;11.90;99.90
46416;DHT22;32620;51.704;7.822;2023-11-19T14:51:20;11.90;99.90
46416;DHT22;32620;51.704;7.822;2023-11-19T14:53:46;11.90;99.90
46416;DHT22;32620;51.704;7.822;2023-11-19T14:56:12;11.90;99.90
46416;DHT22;32620;51.704;7.822;2023-11-19T14:58:38;12.00;99.90
46416;DHT22;32620;51.704;7.822;2023-11-19T15:01:04;11.90;99.90
46416;DHT22;32620;51.704;7.822;2023-11-19T15:03:30;11.90;99.90
46416;DHT22;32620;51.704;7.822;2023-11-19T15:05:56;11.90;99.90
46416;DHT22;32620;51.704;7.822;2023-11-19T15:08:22;11.90;99.90
46416;DHT22;32620;51.704;7.822;2023-11-19T15:10:48;12.00;99.90
46416;DHT22;32620;51.704;7.822;2023-11-19T15:13:13;12.00;99.90
46416;DHT22;32620;51.704;7.822;2023-11-19T15:15:39;12.00;99.90
46416;DHT22;32620;51.704;7.822;2023-11-19T15:18:05;11.90;99.90
46416;DHT22;32620;51.704;7.822;2023-11-19T15:20:31;11.80;99.90
46416;DHT22;32620;51.704;7.822;2023-11-19T15:22:57;11.80;99.90
46416;DHT22;32620;51.704;7.822;2023-11-19T15:25:23;11.70;99.90
46416;DHT22;32620;51.704;7.822;2023-11-19T15:27:49;11.70;99.90
46416;DHT22;32620;51.704;7.822;2023-11-19T15:30:15;11.70;99.90
46416;DHT22;32620;51.704;7.822;2023-11-19T15:32:41;11.60;99.90
46416;DHT22;32620;51.704;7.822;2023-11-19T15:35:08;11.60;99.90
46416;DHT22;32620;51.704;7.822;2023-11-19T15:37:35;11.50;99.90
46416;DHT22;32620;51.704;7.822;2023-11-19T15:40:01;11.60;99.90
46416;DHT22;32620;51.704;7.822;2023-11-19T15:42:29;11.60;99.90